createdAt,value
2023-04-14T00:00:52.229Z,28.86
2023-04-14T00:03:20.723Z,28.89
2023-04-14T00:05:49.181Z,28.92
2023-04-14T00:08:17.516Z,28.97
2023-04-14T00:10:45.852Z,29.00
2023-04-14T00:13:14.172Z,29.03
2023-04-14T00:15:43.462Z,29.06
2023-04-14T00:18:11.857Z,29.10
2023-04-14T00:20:40.215Z,29.14
2023-04-14T00:23:08.571Z,29.17
2023-04-14T00:25:36.879Z,29.23
2023-04-14T00:28:05.189Z,29.28
2023-04-14T00:30:33.514Z,29.32
2023-04-14T00:33:02.067Z,29.36
2023-04-14T00:35:30.530Z,29.42
2023-04-14T00:37:59.488Z,29.47
2023-04-14T00:40:27.904Z,29.53
2023-04-14T00:42:56.317Z,29.57
2023-04-14T00:45:26.340Z,29.62
2023-04-14T00:47:55.968Z,29.69
2023-04-14T00:50:24.455Z,29.75
2023-04-14T00:52:54.470Z,29.82
2023-04-14T00:55:22.870Z,29.89
2023-04-14T00:57:51.494Z,29.95
2023-04-14T01:00:20.656Z,30.01
2023-04-14T01:02:49.223Z,30.07
2023-04-14T01:05:18.060Z,30.14
2023-04-14T01:07:49.263Z,30.21
2023-04-14T01:10:18.286Z,30.28
2023-04-14T01:13:15.182Z,30.35
2023-04-14T01:15:53.768Z,30.41
2023-04-14T01:19:09.847Z,30.47
2023-04-14T01:21:43.448Z,30.53
2023-04-14T01:24:14.751Z,30.59
2023-04-14T01:26:44.481Z,30.63
2023-04-14T01:29:34.135Z,30.68
2023-04-14T01:32:07.349Z,30.72
2023-04-14T01:34:47.500Z,30.78
2023-04-14T01:37:26.370Z,30.83
2023-04-14T01:39:58.091Z,30.88
2023-04-14T01:42:31.692Z,30.92
2023-04-14T01:45:16.811Z,30.96
2023-04-14T01:47:47.650Z,31.02
2023-04-14T01:50:17.951Z,31.06
2023-04-14T01:52:53.875Z,31.12
2023-04-14T01:55:24.732Z,31.17
2023-04-14T01:57:55.481Z,31.21
2023-04-14T02:00:25.708Z,31.25
2023-04-14T02:02:56.541Z,31.30
2023-04-14T02:05:26.608Z,31.35
2023-04-14T02:07:56.736Z,31.41
2023-04-14T02:10:26.074Z,31.45
2023-04-14T02:12:58.151Z,31.53
2023-04-14T02:15:29.487Z,31.60
2023-04-14T02:17:59.575Z,31.65
2023-04-14T02:20:30.011Z,31.72
2023-04-14T02:22:58.479Z,31.78
2023-04-14T02:25:32.188Z,31.82
2023-04-14T02:28:07.843Z,31.87
2023-04-14T02:30:50.068Z,31.92
2023-04-14T02:33:23.173Z,31.98
2023-04-14T02:36:04.684Z,32.02
2023-04-14T02:38:40.619Z,32.08
2023-04-14T02:41:15.641Z,32.12
2023-04-14T02:43:51.562Z,32.16
2023-04-14T02:46:24.082Z,32.19
2023-04-14T02:48:54.976Z,32.23
2023-04-14T02:51:25.197Z,32.26
2023-04-14T02:53:53.772Z,32.32
2023-04-14T02:56:22.978Z,32.37
2023-04-14T02:58:52.533Z,32.43
2023-04-14T03:01:21.306Z,32.47
2023-04-14T03:03:51.099Z,32.53
2023-04-14T03:06:19.493Z,32.59
2023-04-14T03:08:49.371Z,32.67
2023-04-14T03:11:19.272Z,32.76
2023-04-14T03:13:50.164Z,32.83
2023-04-14T03:16:25.159Z,32.90
2023-04-14T03:18:55.412Z,32.95
2023-04-14T03:21:25.207Z,33.02
2023-04-14T03:23:56.804Z,33.10
2023-04-14T03:26:29.483Z,33.15
2023-04-14T03:29:00.146Z,33.22
2023-04-14T03:31:38.042Z,33.27
2023-04-14T03:34:08.118Z,33.34
2023-04-14T03:36:37.797Z,33.39
2023-04-14T03:39:07.148Z,33.44
2023-04-14T03:41:39.231Z,33.51
2023-04-14T03:44:12.143Z,33.60
2023-04-14T03:46:40.573Z,33.68
2023-04-14T03:49:14.205Z,33.77
2023-04-14T03:51:45.164Z,33.85
2023-04-14T03:54:16.782Z,33.92
2023-04-14T03:56:49.212Z,34.00
2023-04-14T03:59:20.395Z,34.10
2023-04-14T04:01:50.225Z,34.18
2023-04-14T04:04:19.826Z,34.23
2023-04-14T04:06:50.511Z,34.27
2023-04-14T04:09:20.603Z,34.32
2023-04-14T04:11:51.284Z,34.39
2023-04-14T04:14:22.401Z,34.46
2023-04-14T04:16:52.088Z,34.52
2023-04-14T04:19:23.230Z,34.55
2023-04-14T04:21:54.737Z,34.57
2023-04-14T04:24:27.100Z,34.58
2023-04-14T04:26:56.733Z,34.62
2023-04-14T04:29:25.620Z,34.64
2023-04-14T04:31:55.370Z,34.70
2023-04-14T04:34:26.326Z,34.81
2023-04-14T04:36:55.687Z,34.88
2023-04-14T04:39:24.386Z,34.92
2023-04-14T04:41:52.912Z,34.95
2023-04-14T04:44:21.407Z,34.98
2023-04-14T04:46:57.334Z,34.97
2023-04-14T04:49:25.961Z,34.97
2023-04-14T04:51:54.532Z,35.00
2023-04-14T04:54:23.018Z,35.05
2023-04-14T04:56:51.520Z,35.10
2023-04-14T04:59:19.856Z,35.14
2023-04-14T05:01:48.451Z,35.16
2023-04-14T05:04:17.456Z,35.23
2023-04-14T05:06:46.041Z,35.31
2023-04-14T05:09:14.373Z,35.42
2023-04-14T05:11:42.988Z,35.48
2023-04-14T05:14:11.411Z,35.53
2023-04-14T05:16:39.734Z,35.58
2023-04-14T05:19:08.102Z,35.61
2023-04-14T05:21:36.780Z,35.63
2023-04-14T05:24:06.301Z,35.68
2023-04-14T05:29:05.737Z,35.73
2023-04-14T05:31:34.189Z,35.77
2023-04-14T05:34:02.876Z,35.81
2023-04-14T05:36:32.249Z,35.84
2023-04-14T05:39:01.096Z,35.87
2023-04-14T05:41:29.482Z,35.90
2023-04-14T05:43:57.822Z,35.92
2023-04-14T05:46:26.256Z,35.97
2023-04-14T05:48:54.728Z,35.98
2023-04-14T05:51:23.053Z,36.03
2023-04-14T05:53:51.434Z,36.07
2023-04-14T05:56:19.838Z,36.11
2023-04-14T05:58:48.601Z,36.12
2023-04-14T06:01:17.440Z,36.13
2023-04-14T06:03:46.033Z,36.13
2023-04-14T06:06:14.709Z,36.12
2023-04-14T06:08:43.053Z,36.15
2023-04-14T06:11:11.554Z,36.16
2023-04-14T06:13:39.879Z,36.18
2023-04-14T06:16:08.729Z,36.17
2023-04-14T06:18:37.301Z,36.19
2023-04-14T06:21:05.853Z,36.19
2023-04-14T06:23:34.320Z,36.23
2023-04-14T06:26:02.702Z,36.25
2023-04-14T06:28:31.387Z,36.27
2023-04-14T06:31:01.306Z,36.33
2023-04-14T06:33:29.657Z,36.38
2023-04-14T06:35:58.085Z,36.41
2023-04-14T06:38:27.619Z,36.45
2023-04-14T06:40:55.946Z,36.48
2023-04-14T06:43:24.269Z,36.50
2023-04-14T06:45:52.797Z,36.51
2023-04-14T06:48:21.246Z,36.50
2023-04-14T06:50:57.336Z,36.47
2023-04-14T06:53:26.815Z,36.46
2023-04-14T06:56:01.460Z,36.45
2023-04-14T06:58:30.978Z,36.45
2023-04-14T07:01:03.800Z,36.45
2023-04-14T07:03:32.570Z,36.42
2023-04-14T07:06:09.237Z,36.40
2023-04-14T07:08:38.301Z,36.37
2023-04-14T07:11:09.644Z,36.34
2023-04-14T07:13:39.361Z,36.29
2023-04-14T07:16:09.081Z,36.26
2023-04-14T07:18:37.552Z,36.24
2023-04-14T07:21:06.014Z,36.22
2023-04-14T07:23:34.637Z,36.23
2023-04-14T07:26:03.056Z,36.27
2023-04-14T07:28:31.469Z,36.31
2023-04-14T07:30:59.915Z,36.35
2023-04-14T07:33:32.097Z,36.39
2023-04-14T07:36:03.425Z,36.42
2023-04-14T07:38:35.651Z,36.47
2023-04-14T07:41:08.233Z,36.51
2023-04-14T07:43:36.758Z,36.52
2023-04-14T07:46:06.633Z,36.52
2023-04-14T07:48:39.502Z,36.52
2023-04-14T07:51:08.626Z,36.54
2023-04-14T07:53:41.413Z,36.56
2023-04-14T07:56:10.420Z,36.55
2023-04-14T07:58:38.847Z,36.53
2023-04-14T08:01:07.524Z,36.54
2023-04-14T08:03:38.433Z,36.51
2023-04-14T08:06:08.427Z,36.50
2023-04-14T08:08:37.696Z,36.49
2023-04-14T08:11:06.141Z,36.49
2023-04-14T08:13:34.518Z,36.49
2023-04-14T08:16:02.953Z,36.47
2023-04-14T08:18:31.669Z,36.46
2023-04-14T08:21:00.099Z,36.45
2023-04-14T08:23:28.457Z,36.44
2023-04-14T08:25:57.520Z,36.42
2023-04-14T08:28:25.889Z,36.41
2023-04-14T08:30:54.312Z,36.41
2023-04-14T08:33:22.723Z,36.41
2023-04-14T08:35:58.435Z,36.41
2023-04-14T08:38:29.664Z,36.40
2023-04-14T08:40:58.348Z,36.42
2023-04-14T08:43:26.777Z,36.40
2023-04-14T08:45:56.878Z,36.39
2023-04-14T08:48:31.705Z,36.36
2023-04-14T08:51:19.834Z,36.33
2023-04-14T08:53:50.060Z,36.27
2023-04-14T08:56:22.438Z,36.23
2023-04-14T08:58:51.787Z,36.21
2023-04-14T09:01:21.035Z,36.20
2023-04-14T09:03:50.149Z,36.20
2023-04-14T09:06:19.695Z,36.18
2023-04-14T09:08:48.237Z,36.17
2023-04-14T09:11:17.773Z,36.15
2023-04-14T09:13:46.606Z,36.13
2023-04-14T09:16:18.294Z,36.11
2023-04-14T09:18:47.974Z,36.05
2023-04-14T09:21:30.149Z,36.01
2023-04-14T09:24:10.457Z,36.00
2023-04-14T09:26:40.217Z,36.03
2023-04-14T09:29:08.569Z,36.04
2023-04-14T09:31:38.078Z,36.05
2023-04-14T09:34:15.904Z,36.03
2023-04-14T09:37:00.470Z,36.01
2023-04-14T09:39:29.788Z,35.96
2023-04-14T09:41:58.299Z,35.93
2023-04-14T09:44:26.863Z,35.90
2023-04-14T09:47:06.770Z,35.88
2023-04-14T09:49:35.669Z,35.84
2023-04-14T09:52:09.568Z,35.81
2023-04-14T09:54:41.063Z,35.76
2023-04-14T09:57:09.789Z,35.68
2023-04-14T09:59:39.676Z,35.64
2023-04-14T10:02:11.496Z,35.58
2023-04-14T10:04:40.030Z,35.53
2023-04-14T10:07:09.120Z,35.47
2023-04-14T10:09:41.701Z,35.42
2023-04-14T10:12:11.419Z,35.34
2023-04-14T10:14:43.521Z,35.28
2023-04-14T10:17:12.832Z,35.21
2023-04-14T10:19:41.713Z,35.13
2023-04-14T10:22:10.660Z,35.07
2023-04-14T10:24:39.077Z,34.96
2023-04-14T10:27:07.833Z,34.88
2023-04-14T10:29:36.305Z,34.80
2023-04-14T10:32:09.005Z,34.74
2023-04-14T10:34:42.651Z,34.65
2023-04-14T10:37:17.929Z,34.58
2023-04-14T10:39:57.259Z,34.51
2023-04-14T10:42:29.232Z,34.43
2023-04-14T10:45:08.603Z,34.35
2023-04-14T10:47:42.026Z,34.28
2023-04-14T10:50:21.609Z,34.21
2023-04-14T10:52:57.296Z,34.13
2023-04-14T10:55:29.409Z,34.05
2023-04-14T10:58:07.652Z,33.97
2023-04-14T11:00:40.191Z,33.90
2023-04-14T11:03:14.044Z,33.86
2023-04-14T11:05:49.955Z,33.79
2023-04-14T11:08:29.013Z,33.73
2023-04-14T11:11:05.741Z,33.66
2023-04-14T11:13:35.779Z,33.61
2023-04-14T11:16:08.888Z,33.55
2023-04-14T11:18:46.518Z,33.49
2023-04-14T11:21:18.149Z,33.42
2023-04-14T11:23:46.543Z,33.35
2023-04-14T11:26:15.045Z,33.29
2023-04-14T11:28:45.453Z,33.23
2023-04-14T11:31:16.691Z,33.18
2023-04-14T11:33:45.934Z,33.13
2023-04-14T11:36:14.465Z,33.06
2023-04-14T11:38:44.629Z,32.99
2023-04-14T11:41:16.863Z,32.91
2023-04-14T11:43:47.621Z,32.83
2023-04-14T11:46:19.007Z,32.75
2023-04-14T11:48:47.386Z,32.70
2023-04-14T11:51:16.011Z,32.66
2023-04-14T11:53:44.334Z,32.60
2023-04-14T11:56:13.831Z,32.55
2023-04-14T11:58:42.375Z,32.49
2023-04-14T12:01:15.330Z,32.44
2023-04-14T12:03:44.681Z,32.38
2023-04-14T12:06:13.138Z,32.33
2023-04-14T12:08:41.707Z,32.27
2023-04-14T12:11:15.477Z,32.22
2023-04-14T12:13:48.276Z,32.16
2023-04-14T12:16:18.056Z,32.12
2023-04-14T12:18:46.801Z,32.08
2023-04-14T12:21:20.571Z,32.05
2023-04-14T12:23:50.016Z,32.03
2023-04-14T12:26:19.018Z,32.00
2023-04-14T12:28:48.130Z,31.97
2023-04-14T12:31:16.918Z,31.94
2023-04-14T12:33:45.885Z,31.91
2023-04-14T12:36:15.017Z,31.88
2023-04-14T12:38:43.769Z,31.84
2023-04-14T12:41:12.163Z,31.81
2023-04-14T12:43:42.229Z,31.77
2023-04-14T12:46:10.853Z,31.74
2023-04-14T12:48:40.946Z,31.71
2023-04-14T12:51:11.728Z,31.67
2023-04-14T12:53:42.181Z,31.64
2023-04-14T12:56:14.178Z,31.61
2023-04-14T12:58:44.616Z,31.58
2023-04-14T13:01:13.982Z,31.56
2023-04-14T13:03:47.302Z,31.54
2023-04-14T13:06:17.712Z,31.50
2023-04-14T13:08:53.498Z,31.47
2023-04-14T13:11:24.321Z,31.44
2023-04-14T13:13:56.882Z,31.40
2023-04-14T13:16:26.418Z,31.37
2023-04-14T13:18:56.072Z,31.35
2023-04-14T13:21:24.529Z,31.34
2023-04-14T13:23:52.898Z,31.32
2023-04-14T13:26:21.726Z,31.31
2023-04-14T13:28:51.685Z,31.31
2023-04-14T13:31:20.126Z,31.28
2023-04-14T13:33:48.621Z,31.27
2023-04-14T13:36:17.829Z,31.25
2023-04-14T13:38:46.185Z,31.21
2023-04-14T13:41:16.246Z,31.21
2023-04-14T13:43:44.593Z,31.19
2023-04-14T13:46:13.007Z,31.17
2023-04-14T13:48:41.386Z,31.14
2023-04-14T13:51:09.982Z,31.12
2023-04-14T13:53:40.508Z,31.09
2023-04-14T13:56:08.950Z,31.05
2023-04-14T13:58:39.425Z,31.02
2023-04-14T14:01:12.216Z,30.98
2023-04-14T14:03:44.280Z,30.95
2023-04-14T14:06:12.952Z,30.92
2023-04-14T14:08:43.502Z,30.91
2023-04-14T14:11:12.506Z,30.89
2023-04-14T14:13:41.209Z,30.88
2023-04-14T14:16:10.670Z,30.87
2023-04-14T14:18:39.405Z,30.85
2023-04-14T14:21:07.802Z,30.84
2023-04-14T14:23:36.165Z,30.82
2023-04-14T14:26:04.649Z,30.80
2023-04-14T14:28:33.433Z,30.77
2023-04-14T14:31:01.943Z,30.74
2023-04-14T14:33:30.340Z,30.72
2023-04-14T14:35:58.750Z,30.70
2023-04-14T14:38:27.323Z,30.70
2023-04-14T14:40:55.719Z,30.67
2023-04-14T14:43:24.703Z,30.65
2023-04-14T14:45:53.071Z,30.62
2023-04-14T14:48:22.484Z,30.59
2023-04-14T14:50:50.818Z,30.59
2023-04-14T14:53:19.134Z,30.56
2023-04-14T14:55:47.517Z,30.55
2023-04-14T14:58:15.892Z,30.54
2023-04-14T15:00:44.277Z,30.53
2023-04-14T15:03:13.087Z,30.51
2023-04-14T15:05:41.729Z,30.51
2023-04-14T15:08:10.682Z,30.50
2023-04-14T15:10:39.052Z,30.48
2023-04-14T15:13:08.001Z,30.44
2023-04-14T15:15:36.775Z,30.43
2023-04-14T15:18:06.343Z,30.41
2023-04-14T15:20:34.705Z,30.39
2023-04-14T15:23:03.120Z,30.36
2023-04-14T15:25:31.979Z,30.34
2023-04-14T15:28:00.339Z,30.33
2023-04-14T15:30:28.954Z,30.31
2023-04-14T15:32:57.329Z,30.28
2023-04-14T15:35:27.383Z,30.26
2023-04-14T15:37:55.859Z,30.23
2023-04-14T15:40:24.264Z,30.20
2023-04-14T15:42:52.605Z,30.17
2023-04-14T15:45:21.028Z,30.16
2023-04-14T15:47:49.897Z,30.11
2023-04-14T15:50:19.704Z,30.08
2023-04-14T15:52:48.047Z,30.07
2023-04-14T15:55:16.493Z,30.07
2023-04-14T15:57:44.865Z,30.06
2023-04-14T16:00:13.787Z,30.06
2023-04-14T16:02:43.176Z,30.06
2023-04-14T16:05:12.130Z,30.04
2023-04-14T16:07:41.016Z,30.02
2023-04-14T16:10:09.694Z,30.00
2023-04-14T16:12:38.070Z,29.98
2023-04-14T16:15:10.600Z,29.96
2023-04-14T16:17:39.044Z,29.95
2023-04-14T16:20:07.788Z,29.94
2023-04-14T16:22:36.363Z,29.93
2023-04-14T16:25:05.461Z,29.93
2023-04-14T16:27:34.758Z,29.92
2023-04-14T16:30:04.581Z,29.92
2023-04-14T16:32:32.989Z,29.89
2023-04-14T16:35:02.039Z,29.88
2023-04-14T16:37:30.437Z,29.85
2023-04-14T16:39:59.098Z,29.82
2023-04-14T16:42:28.379Z,29.77
2023-04-14T16:44:57.303Z,29.75
2023-04-14T16:47:25.722Z,29.72
2023-04-14T16:49:54.188Z,29.71
2023-04-14T16:52:22.916Z,29.68
2023-04-14T16:54:51.312Z,29.68
2023-04-14T16:57:19.637Z,29.64
2023-04-14T16:59:49.041Z,29.64
2023-04-14T17:02:17.523Z,29.61
2023-04-14T17:04:46.113Z,29.59
2023-04-14T17:07:14.636Z,29.55
2023-04-14T17:09:43.757Z,29.56
2023-04-14T17:12:12.310Z,29.56
2023-04-14T17:14:40.737Z,29.56
2023-04-14T17:17:09.148Z,29.55
2023-04-14T17:19:37.470Z,29.54
2023-04-14T17:22:05.828Z,29.53
2023-04-14T17:24:34.604Z,29.53
2023-04-14T17:27:03.222Z,29.53
2023-04-14T17:29:31.585Z,29.51
2023-04-14T17:32:00.441Z,29.49
2023-04-14T17:34:30.222Z,29.46
2023-04-14T17:36:59.664Z,29.44
2023-04-14T17:39:28.190Z,29.42
2023-04-14T17:41:58.817Z,29.42
2023-04-14T17:44:33.679Z,29.41
2023-04-14T17:47:04.142Z,29.42
2023-04-14T17:49:33.456Z,29.42
2023-04-14T17:52:02.255Z,29.42
2023-04-14T17:54:31.107Z,29.42
2023-04-14T17:56:59.529Z,29.41
2023-04-14T17:59:28.080Z,29.40
2023-04-14T18:01:56.548Z,29.38
2023-04-14T18:04:25.686Z,29.37
2023-04-14T18:06:54.591Z,29.35
2023-04-14T18:09:23.107Z,29.33
2023-04-14T18:11:51.507Z,29.31
2023-04-14T18:14:20.575Z,29.27
2023-04-14T18:16:48.979Z,29.26
2023-04-14T18:19:17.354Z,29.23
2023-04-14T18:21:46.140Z,29.22
2023-04-14T18:26:46.228Z,29.20
2023-04-14T18:29:14.623Z,29.16
2023-04-14T18:31:43.580Z,29.17
2023-04-14T18:34:13.500Z,29.14
2023-04-14T18:36:41.986Z,29.14
2023-04-14T18:39:10.362Z,29.12
2023-04-14T18:41:38.754Z,29.09
2023-04-14T18:44:07.639Z,29.07
2023-04-14T18:46:36.775Z,29.05
2023-04-14T18:49:06.654Z,29.01
2023-04-14T18:51:35.073Z,28.99
2023-04-14T18:54:03.598Z,28.97
2023-04-14T18:56:32.498Z,28.95
2023-04-14T18:59:01.586Z,28.95
2023-04-14T19:01:30.249Z,28.93
2023-04-14T19:03:58.873Z,28.93
2023-04-14T19:06:27.645Z,28.91
2023-04-14T19:08:56.027Z,28.89
2023-04-14T19:11:24.602Z,28.86
2023-04-14T19:13:54.944Z,28.83
2023-04-14T19:16:23.577Z,28.82
2023-04-14T19:18:53.302Z,28.80
2023-04-14T19:21:21.733Z,28.79
2023-04-14T19:23:51.879Z,28.78
2023-04-14T19:26:20.377Z,28.76
2023-04-14T19:28:48.925Z,28.75
2023-04-14T19:31:22.121Z,28.72
2023-04-14T19:33:50.597Z,28.71
2023-04-14T19:36:19.430Z,28.69
2023-04-14T19:38:48.130Z,28.66
2023-04-14T19:41:16.677Z,28.65
2023-04-14T19:43:46.493Z,28.62
2023-04-14T19:46:14.857Z,28.61
2023-04-14T19:48:43.323Z,28.59
2023-04-14T19:51:12.272Z,28.57
2023-04-14T19:53:40.777Z,28.54
2023-04-14T19:56:09.679Z,28.54
2023-04-14T19:58:38.058Z,28.53
2023-04-14T20:01:06.654Z,28.53
2023-04-14T20:03:35.243Z,28.50
2023-04-14T20:06:04.163Z,28.49
2023-04-14T20:08:33.157Z,28.48
2023-04-14T20:11:01.489Z,28.48
2023-04-14T20:13:32.960Z,28.47
2023-04-14T20:16:02.465Z,28.48
2023-04-14T20:18:30.927Z,28.48
2023-04-14T20:21:00.142Z,28.48
2023-04-14T20:23:28.886Z,28.48
2023-04-14T20:25:57.758Z,28.46
2023-04-14T20:28:27.230Z,28.46
2023-04-14T20:30:56.570Z,28.44
2023-04-14T20:33:25.628Z,28.42
2023-04-14T20:35:54.948Z,28.39
2023-04-14T20:38:23.928Z,28.37
2023-04-14T20:40:53.224Z,28.35
2023-04-14T20:43:21.816Z,28.34
2023-04-14T20:45:50.618Z,28.31
2023-04-14T20:48:19.404Z,28.30
2023-04-14T20:50:50.415Z,28.28
2023-04-14T20:53:19.837Z,28.26
2023-04-14T20:55:48.780Z,28.24
2023-04-14T20:58:17.182Z,28.22
2023-04-14T21:00:45.588Z,28.22
2023-04-14T21:03:14.059Z,28.21
2023-04-14T21:05:43.143Z,28.19
2023-04-14T21:08:11.565Z,28.17
2023-04-14T21:11:14.563Z,28.16
2023-04-14T21:15:31.332Z,28.14
2023-04-14T21:16:17.098Z,28.13
2023-04-14T21:18:45.736Z,28.12
2023-04-14T21:21:14.425Z,28.12
2023-04-14T21:23:43.273Z,28.11
2023-04-14T21:26:12.818Z,28.10
2023-04-14T21:28:42.676Z,28.10
2023-04-14T21:31:12.085Z,28.08
2023-04-14T21:33:42.528Z,28.10
2023-04-14T21:36:11.620Z,28.08
2023-04-14T21:38:40.207Z,28.06
2023-04-14T21:41:11.693Z,28.05
2023-04-14T21:43:40.762Z,28.02
2023-04-14T21:46:09.729Z,28.03
2023-04-14T21:48:38.440Z,28.02
2023-04-14T21:51:06.804Z,28.01
2023-04-14T21:53:35.158Z,28.01
2023-04-14T21:56:10.037Z,28.00
2023-04-14T21:58:41.779Z,27.99
2023-04-14T22:01:13.287Z,27.97
2023-04-14T22:03:42.211Z,27.97
2023-04-14T22:06:13.358Z,27.95
2023-04-14T22:08:42.317Z,27.94
2023-04-14T22:11:10.817Z,27.94
2023-04-14T22:13:39.413Z,27.93
2023-04-14T22:16:08.361Z,27.92
2023-04-14T22:18:39.716Z,27.90
2023-04-14T22:21:11.529Z,27.90
2023-04-14T22:23:41.059Z,27.87
2023-04-14T22:26:10.030Z,27.87
2023-04-14T22:28:38.868Z,27.85
2023-04-14T22:31:07.840Z,27.84
2023-04-14T22:33:36.788Z,27.83
2023-04-14T22:36:07.134Z,27.83
2023-04-14T22:38:35.611Z,27.81
2023-04-14T22:41:03.993Z,27.81
2023-04-14T22:43:32.665Z,27.79
2023-04-14T22:46:01.026Z,27.78
2023-04-14T22:48:29.378Z,27.74
2023-04-14T22:50:57.752Z,27.75
2023-04-14T22:53:26.196Z,27.73
2023-04-14T22:55:54.572Z,27.74
2023-04-14T22:58:24.900Z,27.74
2023-04-14T23:00:53.566Z,27.74
2023-04-14T23:03:22.284Z,27.75
2023-04-14T23:05:53.339Z,27.74
2023-04-14T23:08:21.810Z,27.74
2023-04-14T23:10:50.146Z,27.73
2023-04-14T23:13:18.537Z,27.72
2023-04-14T23:15:47.234Z,27.70
2023-04-14T23:18:21.250Z,27.70
2023-04-14T23:20:49.640Z,27.70
2023-04-14T23:23:18.049Z,27.70
2023-04-14T23:25:46.640Z,27.72
2023-04-14T23:28:14.977Z,27.72
2023-04-14T23:30:43.945Z,27.74
2023-04-14T23:33:12.281Z,27.74
2023-04-14T23:35:41.183Z,27.75
2023-04-14T23:38:09.824Z,27.76
2023-04-14T23:40:38.356Z,27.78
2023-04-14T23:43:06.699Z,27.80
2023-04-14T23:45:38.038Z,27.83
2023-04-14T23:48:08.038Z,27.84
2023-04-14T23:51:00.342Z,27.88
2023-04-14T23:53:26.202Z,27.92
2023-04-14T23:55:54.585Z,27.96
2023-04-14T23:58:26.742Z,27.99
